Time;durP1;ratioP1;P1;durP2;ratioP2;P2;SDS_P1;SDS_P2;PMS_P1;PMS_P2;Temp;Humidity;BMP_temperature;BMP_pressure;BME280_temperature;BME280_humidity;BME280_pressure;Samples;Min_cycle;Max_cycle;Signal;HPM_P1;HPM_P2
2023/07/08 00:01:35;;;;;;;;;16.67;16.33;;;;;;;;5020339;28;8850;-60
2023/07/08 00:04:00;;;;;;;;;16.75;16.50;;;;;;;;5008770;28;8838;-61
2023/07/08 00:06:26;;;;;;;;;23.75;22.50;;;;;;;;5008332;28;8835;-61
2023/07/08 00:08:51;;;;;;;;;16.50;16.00;;;;;;;;5011307;28;10075;-60
2023/07/08 00:11:17;;;;;;;;;29.50;29.00;;;;;;;;5019866;28;9748;-60
2023/07/08 00:13:42;;;;;;;;;37.00;33.00;;;;;;;;5024038;28;8838;-61
2023/07/08 00:16:09;;;;;;;;;35.00;32.25;;;;;;;;5009434;28;8873;-61
2023/07/08 00:18:34;;;;;;;;;30.75;29.50;;;;;;;;5008336;28;8811;-60
2023/07/08 00:21:00;;;;;;;;;34.75;32.50;;;;;;;;5009463;28;10670;-61
2023/07/08 00:23:25;;;;;;;;;28.00;27.00;;;;;;;;5007562;28;9001;-61
2023/07/08 00:25:51;;;;;;;;;24.00;22.25;;;;;;;;5009104;28;8835;-60
2023/07/08 00:28:21;;;;;;;;;26.75;26.25;;;;;;;;5009860;28;9551;-60
2023/07/08 00:30:46;;;;;;;;;20.50;19.25;;;;;;;;5008239;28;10231;-61
2023/07/08 00:33:11;;;;;;;;;19.00;19.00;;;;;;;;4991038;28;10008;-61
2023/07/08 00:35:36;;;;;;;;;27.75;26.50;;;;;;;;5006731;28;8877;-61
2023/07/08 00:38:12;;;;;;;;;32.75;30.25;;;;;;;;5011730;28;8857;-61
2023/07/08 00:40:38;;;;;;;;;31.00;28.25;;;;;;;;5008030;28;8795;-61
2023/07/08 00:43:05;;;;;;;;;28.75;28.00;;;;;;;;5009469;28;11128;-62
2023/07/08 00:45:51;;;;;;;;;27.00;26.25;;;;;;;;5021825;28;10860;-61
2023/07/08 00:48:24;;;;;;;;;32.75;30.50;;;;;;;;5022779;28;10933;-60
2023/07/08 00:50:52;;;;;;;;;23.00;20.50;;;;;;;;5023617;28;9981;-61
2023/07/08 00:53:24;;;;;;;;;18.25;17.75;;;;;;;;5023312;28;10041;-60
2023/07/08 00:55:50;;;;;;;;;15.50;14.00;;;;;;;;5023132;28;9662;-61
2023/07/08 00:58:18;;;;;;;;;12.67;12.00;;;;;;;;5022784;28;9651;-60
2023/07/08 01:00:44;;;;;;;;;31.50;29.25;;;;;;;;5021747;28;8829;-60
2023/07/08 01:03:09;;;;;;;;;18.75;17.50;;;;;;;;5022827;28;10361;-61
2023/07/08 01:05:38;;;;;;;;;23.75;22.50;;;;;;;;5023253;28;8937;-60
2023/07/08 01:08:05;;;;;;;;;17.67;16.00;;;;;;;;5023497;28;8800;-60
2023/07/08 01:10:36;;;;;;;;;16.00;15.50;;;;;;;;5023095;28;9281;-60
2023/07/08 01:13:07;;;;;;;;;13.33;12.67;;;;;;;;5021871;28;9611;-60
2023/07/08 01:15:36;;;;;;;;;11.00;10.67;;;;;;;;5023587;28;9310;-60
2023/07/08 01:18:02;;;;;;;;;12.00;11.00;;;;;;;;5024494;28;9355;-60
2023/07/08 01:20:27;;;;;;;;;8.00;7.00;;;;;;;;5023509;28;8977;-60
2023/07/08 01:22:52;;;;;;;;;12.33;11.67;;;;;;;;5023225;28;9020;-60
2023/07/08 01:25:18;;;;;;;;;11.00;10.33;;;;;;;;5022807;28;9391;-60
2023/07/08 01:27:45;;;;;;;;;11.67;11.33;;;;;;;;5021409;28;8834;-62
2023/07/08 01:30:11;;;;;;;;;12.00;10.33;;;;;;;;5022986;28;8839;-61
2023/07/08 01:32:39;;;;;;;;;8.33;8.00;;;;;;;;5022410;28;9222;-60
2023/07/08 01:35:04;;;;;;;;;16.67;16.00;;;;;;;;5023353;28;8787;-60
2023/07/08 01:37:33;;;;;;;;;6.67;6.00;;;;;;;;5026607;28;9362;-60
2023/07/08 01:40:12;;;;;;;;;9.00;9.00;;;;;;;;5023677;28;8893;-61
2023/07/08 01:42:38;;;;;;;;;9.67;9.00;;;;;;;;5022329;28;8913;-60
2023/07/08 01:45:09;;;;;;;;;10.33;9.67;;;;;;;;5022494;28;9055;-61
2023/07/08 01:47:35;;;;;;;;;9.67;8.67;;;;;;;;5022418;28;8799;-60
2023/07/08 01:50:00;;;;;;;;;10.00;10.00;;;;;;;;5020636;28;9302;-61
2023/07/08 01:52:25;;;;;;;;;9.00;9.00;;;;;;;;5022294;28;9640;-61
2023/07/08 01:54:56;;;;;;;;;11.00;11.00;;;;;;;;5021160;28;9380;-60
2023/07/08 01:57:21;;;;;;;;;12.00;10.00;;;;;;;;5021844;28;8900;-60
2023/07/08 01:59:47;;;;;;;;;10.67;10.00;;;;;;;;5021167;28;8946;-61
2023/07/08 02:02:12;;;;;;;;;12.00;10.00;;;;;;;;5021436;28;8783;-61
2023/07/08 02:04:37;;;;;;;;;10.67;10.33;;;;;;;;5020476;28;8939;-61
2023/07/08 02:07:05;;;;;;;;;10.67;10.33;;;;;;;;5021496;28;8823;-61
2023/07/08 02:09:30;;;;;;;;;9.00;9.00;;;;;;;;5021413;28;8791;-61
2023/07/08 02:11:56;;;;;;;;;10.67;10.00;;;;;;;;5021594;28;8946;-61
2023/07/08 02:14:21;;;;;;;;;9.00;8.67;;;;;;;;5020261;28;9622;-60
2023/07/08 02:16:46;;;;;;;;;11.00;11.00;;;;;;;;5018166;28;8939;-60
2023/07/08 02:19:11;;;;;;;;;7.67;7.00;;;;;;;;5018389;28;8823;-63
2023/07/08 02:21:37;;;;;;;;;11.00;10.00;;;;;;;;5017571;28;8861;-60
2023/07/08 02:24:02;;;;;;;;;8.00;6.67;;;;;;;;5020326;28;8897;-60
2023/07/08 02:26:27;;;;;;;;;8.00;7.00;;;;;;;;5020194;28;8815;-60
2023/07/08 02:28:53;;;;;;;;;8.67;8.00;;;;;;;;5020102;28;8880;-60
2023/07/08 02:31:18;;;;;;;;;6.00;6.00;;;;;;;;5020925;28;8845;-61
2023/07/08 02:33:43;;;;;;;;;5.67;5.67;;;;;;;;5020994;28;8989;-60
2023/07/08 02:36:08;;;;;;;;;5.00;4.33;;;;;;;;5021200;28;8823;-62
2023/07/08 02:38:34;;;;;;;;;7.33;5.33;;;;;;;;5019891;28;8996;-61
2023/07/08 02:40:59;;;;;;;;;4.33;4.00;;;;;;;;5021238;28;8815;-60
2023/07/08 02:43:24;;;;;;;;;4.00;4.00;;;;;;;;5019870;28;9324;-61
2023/07/08 02:45:50;;;;;;;;;5.33;4.67;;;;;;;;5019006;28;9001;-61
2023/07/08 02:48:17;;;;;;;;;4.67;4.00;;;;;;;;5020229;28;8834;-60
2023/07/08 02:50:42;;;;;;;;;4.33;4.33;;;;;;;;5019836;28;8788;-61
2023/07/08 02:53:07;;;;;;;;;4.67;4.00;;;;;;;;5021130;28;9221;-61
2023/07/08 02:55:32;;;;;;;;;4.00;4.00;;;;;;;;5019700;28;8814;-61
2023/07/08 02:57:57;;;;;;;;;5.00;4.67;;;;;;;;5020484;28;8833;-61
2023/07/08 03:00:22;;;;;;;;;5.00;5.00;;;;;;;;5021706;28;8807;-61
2023/07/08 03:02:48;;;;;;;;;4.00;4.00;;;;;;;;5020773;28;8868;-61
2023/07/08 03:05:13;;;;;;;;;3.00;3.00;;;;;;;;5020764;28;8799;-62
2023/07/08 03:07:38;;;;;;;;;5.00;5.00;;;;;;;;5019372;28;8953;-62
2023/07/08 03:10:03;;;;;;;;;2.67;2.00;;;;;;;;5019724;28;8831;-61
2023/07/08 03:12:29;;;;;;;;;2.67;2.67;;;;;;;;5020452;28;8859;-61
2023/07/08 03:14:54;;;;;;;;;3.00;3.00;;;;;;;;5019903;28;8803;-61
2023/07/08 03:17:19;;;;;;;;;3.00;3.00;;;;;;;;5019753;28;8928;-61
2023/07/08 03:19:45;;;;;;;;;3.00;3.00;;;;;;;;5019789;28;8811;-60
2023/07/08 03:22:10;;;;;;;;;4.00;3.00;;;;;;;;5019591;28;8831;-61
2023/07/08 03:24:35;;;;;;;;;2.67;2.67;;;;;;;;5016881;28;9553;-60
2023/07/08 03:27:04;;;;;;;;;4.00;4.00;;;;;;;;5019931;28;8827;-61
2023/07/08 03:29:30;;;;;;;;;2.75;2.75;;;;;;;;5016146;28;8796;-60
2023/07/08 03:31:55;;;;;;;;;3.00;3.00;;;;;;;;5018897;28;9527;-61
2023/07/08 03:34:20;;;;;;;;;2.00;2.00;;;;;;;;5015425;28;8865;-61
2023/07/08 03:36:48;;;;;;;;;3.67;3.00;;;;;;;;5019987;28;8849;-61
2023/07/08 03:39:14;;;;;;;;;2.00;2.00;;;;;;;;5020517;28;8803;-60
2023/07/08 03:41:40;;;;;;;;;4.00;3.67;;;;;;;;5020716;28;8826;-62
2023/07/08 03:44:06;;;;;;;;;3.00;2.50;;;;;;;;5018407;28;10139;-61
2023/07/08 03:46:31;;;;;;;;;2.67;2.67;;;;;;;;5015727;28;8850;-62
2023/07/08 03:48:56;;;;;;;;;2.00;2.00;;;;;;;;5019861;28;9772;-62
2023/07/08 03:51:23;;;;;;;;;2.67;2.67;;;;;;;;5021130;28;8865;-61
2023/07/08 03:53:48;;;;;;;;;2.00;2.00;;;;;;;;5019485;28;8799;-62
2023/07/08 03:56:13;;;;;;;;;3.67;2.00;;;;;;;;5018657;28;8957;-62
2023/07/08 03:58:38;;;;;;;;;3.67;3.00;;;;;;;;5018532;28;8795;-61
2023/07/08 04:01:04;;;;;;;;;4.00;3.00;;;;;;;;5018711;28;8799;-61
2023/07/08 04:03:29;;;;;;;;;3.67;3.67;;;;;;;;5018906;28;8839;-61
2023/07/08 04:05:55;;;;;;;;;2.33;2.33;;;;;;;;5019735;28;9615;-61
2023/07/08 04:08:20;;;;;;;;;3.67;3.67;;;;;;;;5018667;28;8910;-61
2023/07/08 04:10:45;;;;;;;;;5.00;4.67;;;;;;;;5019999;28;8906;-61
2023/07/08 04:13:11;;;;;;;;;5.00;4.00;;;;;;;;5018553;28;8937;-61
2023/07/08 04:15:36;;;;;;;;;4.67;3.33;;;;;;;;5016839;28;8987;-62
2023/07/08 04:18:01;;;;;;;;;5.67;4.00;;;;;;;;5019239;28;8831;-61
2023/07/08 04:20:26;;;;;;;;;3.33;2.33;;;;;;;;5018738;28;8803;-60
2023/07/08 04:22:51;;;;;;;;;3.00;3.00;;;;;;;;5018401;28;10720;-61
2023/07/08 04:25:17;;;;;;;;;3.00;3.00;;;;;;;;5018136;28;8862;-61
2023/07/08 04:27:43;;;;;;;;;3.33;3.00;;;;;;;;5016207;28;8815;-62
2023/07/08 04:30:14;;;;;;;;;3.00;3.00;;;;;;;;5019548;28;11452;-62
2023/07/08 04:32:39;;;;;;;;;3.00;3.00;;;;;;;;5016041;28;8975;-61
2023/07/08 04:35:04;;;;;;;;;3.33;3.00;;;;;;;;5018088;28;8807;-63
2023/07/08 04:37:30;;;;;;;;;3.00;3.00;;;;;;;;5019054;28;8836;-62
2023/07/08 04:39:55;;;;;;;;;3.00;2.33;;;;;;;;5017964;28;8845;-60
2023/07/08 04:42:20;;;;;;;;;2.00;2.00;;;;;;;;5002624;28;9646;-62
2023/07/08 04:44:45;;;;;;;;;3.00;3.00;;;;;;;;5017599;28;8827;-61
2023/07/08 04:47:13;;;;;;;;;3.00;3.00;;;;;;;;5016885;28;9704;-61
2023/07/08 04:49:43;;;;;;;;;2.00;2.00;;;;;;;;5018318;28;8799;-61
2023/07/08 04:52:08;;;;;;;;;3.50;3.00;;;;;;;;5017127;28;8842;-61
2023/07/08 04:54:33;;;;;;;;;3.00;3.00;;;;;;;;5018447;28;8803;-60
2023/07/08 04:56:59;;;;;;;;;3.00;2.00;;;;;;;;5018019;28;8863;-61
2023/07/08 04:59:24;;;;;;;;;3.00;3.00;;;;;;;;5016989;28;8905;-61
2023/07/08 05:01:50;;;;;;;;;2.00;2.00;;;;;;;;5016244;28;9225;-61
2023/07/08 05:04:16;;;;;;;;;3.00;2.67;;;;;;;;5015758;28;8811;-60
2023/07/08 05:06:41;;;;;;;;;2.75;2.50;;;;;;;;5017559;28;8806;-61
2023/07/08 05:09:07;;;;;;;;;3.00;3.00;;;;;;;;5017815;28;8787;-62
2023/07/08 05:11:33;;;;;;;;;2.00;2.00;;;;;;;;5020998;28;8811;-61
2023/07/08 05:13:58;;;;;;;;;3.00;2.00;;;;;;;;5020808;28;8807;-61
2023/07/08 05:16:24;;;;;;;;;3.00;3.00;;;;;;;;5021102;28;8826;-61
2023/07/08 05:18:49;;;;;;;;;3.33;3.00;;;;;;;;5021176;28;8891;-61
2023/07/08 05:21:15;;;;;;;;;3.00;3.00;;;;;;;;5019392;28;8986;-61
2023/07/08 05:23:40;;;;;;;;;2.67;2.67;;;;;;;;5021967;28;8955;-61
2023/07/08 05:26:07;;;;;;;;;2.00;2.00;;;;;;;;5020394;28;8845;-62
2023/07/08 05:28:32;;;;;;;;;1.00;1.00;;;;;;;;5020447;28;8787;-61
2023/07/08 05:30:57;;;;;;;;;2.00;2.00;;;;;;;;5021496;28;8848;-62
2023/07/08 05:33:24;;;;;;;;;2.67;2.67;;;;;;;;5021536;28;8819;-61
2023/07/08 05:35:49;;;;;;;;;4.00;3.25;;;;;;;;5020575;28;9796;-62
2023/07/08 05:38:14;;;;;;;;;3.00;3.00;;;;;;;;5020649;28;11237;-62
2023/07/08 05:40:39;;;;;;;;;3.00;2.00;;;;;;;;5020071;28;8943;-61
2023/07/08 05:43:05;;;;;;;;;2.33;2.33;;;;;;;;5021140;28;8839;-61
2023/07/08 05:45:30;;;;;;;;;3.00;3.00;;;;;;;;5019800;28;8791;-61
2023/07/08 05:47:55;;;;;;;;;4.00;4.00;;;;;;;;5020942;28;8827;-61
2023/07/08 05:50:20;;;;;;;;;5.00;4.00;;;;;;;;5019859;28;9429;-60
2023/07/08 05:52:45;;;;;;;;;3.00;2.00;;;;;;;;5021294;28;9645;-61
2023/07/08 05:55:11;;;;;;;;;3.00;3.00;;;;;;;;5019741;28;8830;-62
2023/07/08 05:57:36;;;;;;;;;3.00;3.00;;;;;;;;5018282;28;9331;-59
2023/07/08 06:00:01;;;;;;;;;6.00;5.00;;;;;;;;5021338;28;10833;-61
2023/07/08 06:02:26;;;;;;;;;1.00;1.00;;;;;;;;5021617;28;9401;-60
2023/07/08 06:04:52;;;;;;;;;3.00;3.00;;;;;;;;5024542;28;9603;-60
2023/07/08 06:07:17;;;;;;;;;4.00;3.67;;;;;;;;5022811;28;8819;-61
2023/07/08 06:09:43;;;;;;;;;3.67;3.00;;;;;;;;5023910;28;8835;-61
2023/07/08 06:12:08;;;;;;;;;4.67;4.00;;;;;;;;5023052;28;8835;-61
2023/07/08 06:14:33;;;;;;;;;2.33;2.00;;;;;;;;5021618;28;8835;-61
2023/07/08 06:16:58;;;;;;;;;3.00;3.00;;;;;;;;5020153;28;8870;-62
2023/07/08 06:19:24;;;;;;;;;3.00;3.00;;;;;;;;5020697;28;9529;-61
2023/07/08 06:21:49;;;;;;;;;4.33;4.00;;;;;;;;5020480;28;9573;-61
2023/07/08 06:24:14;;;;;;;;;3.00;3.00;;;;;;;;5020028;28;8814;-61
2023/07/08 06:26:39;;;;;;;;;2.33;2.33;;;;;;;;5019219;28;8845;-61
2023/07/08 06:29:04;;;;;;;;;3.00;3.00;;;;;;;;5017192;28;8850;-61
2023/07/08 06:31:30;;;;;;;;;4.67;4.67;;;;;;;;5019935;28;8935;-61
2023/07/08 06:33:55;;;;;;;;;3.00;3.00;;;;;;;;5019096;28;8930;-61
2023/07/08 06:36:20;;;;;;;;;3.00;3.00;;;;;;;;5018674;28;8827;-61
2023/07/08 06:38:46;;;;;;;;;3.00;2.33;;;;;;;;5019052;28;10001;-61
2023/07/08 06:41:11;;;;;;;;;1.67;1.00;;;;;;;;5018897;28;8839;-61
2023/07/08 06:43:36;;;;;;;;;3.00;3.00;;;;;;;;5018107;28;8819;-61
2023/07/08 06:46:01;;;;;;;;;3.00;3.00;;;;;;;;5021010;28;8882;-61
2023/07/08 06:48:26;;;;;;;;;4.67;2.67;;;;;;;;5020128;28;8852;-61
2023/07/08 06:50:52;;;;;;;;;5.33;4.00;;;;;;;;5020625;28;8819;-60
2023/07/08 06:53:17;;;;;;;;;1.00;1.00;;;;;;;;5017758;28;9016;-60
2023/07/08 06:55:45;;;;;;;;;2.33;2.33;;;;;;;;5020843;28;8799;-61
2023/07/08 06:58:10;;;;;;;;;3.25;3.00;;;;;;;;5019971;28;8787;-61
2023/07/08 07:00:36;;;;;;;;;5.00;4.00;;;;;;;;5019037;28;8847;-62
2023/07/08 07:03:01;;;;;;;;;3.00;3.00;;;;;;;;5017890;28;8854;-61
2023/07/08 07:05:26;;;;;;;;;4.00;3.00;;;;;;;;5019196;28;8908;-61
2023/07/08 07:07:52;;;;;;;;;6.33;4.33;;;;;;;;5017938;28;8811;-61
2023/07/08 07:10:17;;;;;;;;;3.25;2.00;;;;;;;;5019921;28;8780;-62
2023/07/08 07:12:43;;;;;;;;;1.33;1.33;;;;;;;;5018312;28;9541;-61
2023/07/08 07:15:08;;;;;;;;;1.33;1.33;;;;;;;;5019540;28;9044;-61
2023/07/08 07:17:35;;;;;;;;;3.67;3.00;;;;;;;;5018494;28;8838;-61
2023/07/08 07:20:00;;;;;;;;;1.50;0.75;;;;;;;;5017765;28;9731;-61
2023/07/08 07:22:25;;;;;;;;;3.00;2.00;;;;;;;;5010898;28;51491;-61
2023/07/08 07:24:51;;;;;;;;;2.00;1.00;;;;;;;;4983541;28;51699;-61
2023/07/08 07:27:16;;;;;;;;;1.00;1.00;;;;;;;;4978434;28;51787;-61
2023/07/08 07:29:43;;;;;;;;;3.00;1.67;;;;;;;;4981281;28;52715;-60
2023/07/08 07:32:08;;;;;;;;;3.00;2.67;;;;;;;;4978583;28;51561;-60
2023/07/08 07:34:33;;;;;;;;;3.00;2.67;;;;;;;;4980244;28;51316;-61
2023/07/08 07:36:58;;;;;;;;;2.00;2.00;;;;;;;;4981770;28;51160;-61
2023/07/08 07:39:24;;;;;;;;;3.00;3.00;;;;;;;;4987812;28;51085;-61
2023/07/08 07:41:49;;;;;;;;;1.00;1.00;;;;;;;;4987872;28;51212;-61
2023/07/08 07:44:14;;;;;;;;;3.00;3.00;;;;;;;;4997626;28;51077;-61
2023/07/08 07:46:39;;;;;;;;;8.00;7.67;;;;;;;;4997041;28;32018;-60
2023/07/08 07:49:04;;;;;;;;;4.33;4.00;;;;;;;;4997857;28;32111;-62
2023/07/08 07:51:29;;;;;;;;;12.33;11.33;;;;;;;;4996959;28;32104;-60
2023/07/08 07:53:55;;;;;;;;;3.67;3.00;;;;;;;;5000963;28;32278;-61
2023/07/08 07:56:20;;;;;;;;;2.67;2.67;;;;;;;;5002524;28;35024;-61
2023/07/08 07:58:45;;;;;;;;;2.67;2.00;;;;;;;;5001885;28;50444;-60
2023/07/08 08:01:13;;;;;;;;;4.00;4.00;;;;;;;;4998929;28;50459;-60
2023/07/08 08:03:38;;;;;;;;;3.00;3.00;;;;;;;;5002763;28;32028;-61
2023/07/08 08:06:03;;;;;;;;;6.00;6.00;;;;;;;;5001261;28;32021;-61
2023/07/08 08:08:28;;;;;;;;;4.00;3.00;;;;;;;;5002297;28;31941;-61
2023/07/08 08:10:54;;;;;;;;;3.00;3.00;;;;;;;;4985186;28;51162;-59
2023/07/08 08:13:19;;;;;;;;;2.67;2.33;;;;;;;;4984692;28;51092;-60
2023/07/08 08:15:44;;;;;;;;;3.00;3.00;;;;;;;;4984064;28;51127;-60
2023/07/08 08:18:09;;;;;;;;;3.00;3.00;;;;;;;;4985180;28;51128;-60
2023/07/08 08:20:35;;;;;;;;;3.33;2.33;;;;;;;;4984607;28;51608;-59
2023/07/08 08:23:00;;;;;;;;;3.33;3.33;;;;;;;;4985768;28;51041;-60
2023/07/08 08:25:25;;;;;;;;;3.00;3.00;;;;;;;;4984608;28;51984;-61
2023/07/08 08:27:52;;;;;;;;;4.00;4.00;;;;;;;;4984787;28;51168;-60
2023/07/08 08:30:17;;;;;;;;;4.00;4.00;;;;;;;;4984961;28;53418;-60
2023/07/08 08:32:42;;;;;;;;;4.00;4.00;;;;;;;;4985684;28;51406;-60
2023/07/08 08:35:08;;;;;;;;;3.67;3.67;;;;;;;;4984919;28;51444;-60
2023/07/08 08:37:33;;;;;;;;;3.33;3.33;;;;;;;;4985695;28;51121;-59
2023/07/08 08:39:58;;;;;;;;;4.00;4.00;;;;;;;;4984821;28;51069;-60
2023/07/08 08:42:34;;;;;;;;;4.00;4.00;;;;;;;;4985990;28;51163;-62
2023/07/08 08:45:03;;;;;;;;;4.00;4.00;;;;;;;;4982797;28;51770;-61
2023/07/08 08:47:39;;;;;;;;;5.33;5.00;;;;;;;;4984552;28;51261;-61
2023/07/08 08:50:19;;;;;;;;;4.33;4.00;;;;;;;;4984807;28;51040;-61
2023/07/08 08:52:45;;;;;;;;;2.67;2.67;;;;;;;;4985912;28;51143;-60
2023/07/08 08:55:11;;;;;;;;;4.00;3.33;;;;;;;;4981710;28;51944;-60
2023/07/08 08:57:49;;;;;;;;;3.33;3.33;;;;;;;;4985277;28;51262;-61
2023/07/08 09:00:18;;;;;;;;;4.00;4.00;;;;;;;;4977366;28;51330;-60
2023/07/08 09:02:49;;;;;;;;;4.00;4.00;;;;;;;;4976418;28;53204;-61
2023/07/08 09:05:15;;;;;;;;;6.00;5.00;;;;;;;;4977735;28;51962;-61
2023/07/08 09:08:03;;;;;;;;;4.33;3.67;;;;;;;;4983650;28;51537;-60
2023/07/08 09:10:46;;;;;;;;;4.00;4.00;;;;;;;;4977667;28;51274;-61
2023/07/08 09:13:25;;;;;;;;;6.00;6.00;;;;;;;;4983977;28;51096;-59
2023/07/08 09:16:09;;;;;;;;;3.67;3.67;;;;;;;;4981360;28;53532;-59
2023/07/08 09:18:43;;;;;;;;;4.33;4.33;;;;;;;;4983655;28;51116;-60
2023/07/08 09:21:30;;;;;;;;;5.33;5.00;;;;;;;;4981930;28;53608;-60
2023/07/08 09:24:00;;;;;;;;;13.00;12.25;;;;;;;;4983565;28;51158;-61
2023/07/08 09:26:27;;;;;;;;;5.00;4.67;;;;;;;;4984382;28;51615;-60
2023/07/08 09:28:52;;;;;;;;;5.67;5.67;;;;;;;;4983971;28;51253;-60
2023/07/08 09:31:22;;;;;;;;;6.00;6.00;;;;;;;;5003340;28;53516;-60
2023/07/08 09:33:50;;;;;;;;;5.00;5.00;;;;;;;;4981455;28;51809;-60
2023/07/08 09:36:16;;;;;;;;;5.00;5.00;;;;;;;;4979543;28;51352;-59
2023/07/08 09:38:42;;;;;;;;;6.00;5.00;;;;;;;;4979192;28;51240;-60
2023/07/08 09:41:07;;;;;;;;;5.00;4.67;;;;;;;;4978530;28;51533;-60
2023/07/08 09:43:37;;;;;;;;;5.00;5.00;;;;;;;;4978893;28;51508;-59
2023/07/08 09:46:03;;;;;;;;;5.33;5.00;;;;;;;;4977905;28;52941;-60
2023/07/08 09:48:30;;;;;;;;;5.67;5.67;;;;;;;;4977157;28;51405;-60
2023/07/08 09:50:58;;;;;;;;;6.00;6.00;;;;;;;;4976623;28;51295;-60
2023/07/08 09:53:26;;;;;;;;;6.00;5.67;;;;;;;;4979221;28;51403;-60
2023/07/08 09:55:51;;;;;;;;;5.33;5.33;;;;;;;;4979733;28;51405;-60
2023/07/08 09:58:25;;;;;;;;;4.00;4.00;;;;;;;;4980812;28;53321;-60
2023/07/08 10:01:01;;;;;;;;;5.67;5.67;;;;;;;;4980722;28;51276;-59
2023/07/08 10:03:34;;;;;;;;;6.33;6.33;;;;;;;;4980113;28;51240;-58
2023/07/08 10:06:03;;;;;;;;;8.00;7.00;;;;;;;;4978156;28;54248;-60
2023/07/08 10:08:30;;;;;;;;;8.33;7.00;;;;;;;;4978794;28;51208;-60
2023/07/08 10:11:02;;;;;;;;;9.33;8.67;;;;;;;;4977252;28;51129;-60
2023/07/08 10:13:37;;;;;;;;;6.00;5.33;;;;;;;;4979845;28;51334;-60
2023/07/08 10:16:24;;;;;;;;;6.67;6.67;;;;;;;;4980973;28;51911;-60
2023/07/08 10:18:49;;;;;;;;;6.33;6.33;;;;;;;;4977857;28;51204;-59
2023/07/08 10:21:27;;;;;;;;;10.67;9.00;;;;;;;;4978701;28;51422;-60
2023/07/08 10:23:52;;;;;;;;;6.00;5.67;;;;;;;;4978051;28;51273;-60
2023/07/08 10:26:25;;;;;;;;;5.67;5.00;;;;;;;;4982036;28;51135;-59
2023/07/08 10:28:59;;;;;;;;;9.67;8.00;;;;;;;;4980873;28;51499;-60
2023/07/08 10:31:35;;;;;;;;;7.50;6.00;;;;;;;;4981024;28;51228;-61
2023/07/08 10:34:01;;;;;;;;;6.00;6.00;;;;;;;;4980694;28;54995;-59
2023/07/08 10:36:35;;;;;;;;;7.00;6.00;;;;;;;;4983113;28;52522;-60
2023/07/08 10:39:15;;;;;;;;;5.33;5.33;;;;;;;;4979874;28;51472;-59
2023/07/08 10:41:40;;;;;;;;;6.33;6.33;;;;;;;;4980314;28;53550;-60
2023/07/08 10:44:32;;;;;;;;;14.00;12.80;;;;;;;;4981303;28;51308;-60
2023/07/08 10:47:07;;;;;;;;;8.00;7.67;;;;;;;;4978609;28;51963;-60
2023/07/08 10:49:49;;;;;;;;;8.67;7.00;;;;;;;;4982123;28;51208;-61
2023/07/08 10:52:14;;;;;;;;;9.00;8.33;;;;;;;;4978440;28;51164;-60
2023/07/08 10:54:47;;;;;;;;;9.20;7.80;;;;;;;;4980091;28;51262;-61
2023/07/08 10:57:13;;;;;;;;;6.50;6.50;;;;;;;;4980914;28;51975;-61
2023/07/08 10:59:53;;;;;;;;;8.00;8.00;;;;;;;;4979123;28;53812;-61
2023/07/08 11:02:30;;;;;;;;;9.00;8.00;;;;;;;;4980336;28;51217;-60
2023/07/08 11:05:09;;;;;;;;;7.33;7.00;;;;;;;;4979189;28;51473;-60
2023/07/08 11:07:53;;;;;;;;;7.33;7.00;;;;;;;;4979133;28;51928;-60
2023/07/08 11:10:22;;;;;;;;;11.00;10.00;;;;;;;;4978833;28;51174;-60
2023/07/08 11:12:52;;;;;;;;;6.00;6.00;;;;;;;;4981537;28;55257;-59
2023/07/08 11:15:30;;;;;;;;;7.00;7.00;;;;;;;;4980987;28;51269;-59
2023/07/08 11:17:59;;;;;;;;;8.00;8.00;;;;;;;;4973925;28;53955;-61
2023/07/08 11:20:27;;;;;;;;;7.00;7.00;;;;;;;;4976525;28;51161;-60
2023/07/08 11:22:55;;;;;;;;;6.67;6.67;;;;;;;;4980905;28;51289;-59
2023/07/08 11:25:23;;;;;;;;;5.33;5.33;;;;;;;;4978996;28;51526;-62
2023/07/08 11:27:51;;;;;;;;;7.33;7.33;;;;;;;;4980470;28;52175;-59
2023/07/08 11:30:20;;;;;;;;;7.00;6.00;;;;;;;;4979309;28;51278;-60
2023/07/08 11:32:48;;;;;;;;;7.67;7.67;;;;;;;;4976379;28;53011;-60
2023/07/08 11:35:19;;;;;;;;;6.33;6.33;;;;;;;;4979219;28;51523;-60
2023/07/08 11:37:45;;;;;;;;;7.00;7.00;;;;;;;;4978232;28;53055;-59
2023/07/08 11:40:20;;;;;;;;;6.33;6.33;;;;;;;;4979240;28;53596;-61
2023/07/08 11:42:54;;;;;;;;;7.67;7.67;;;;;;;;4980412;28;51234;-60
2023/07/08 11:45:38;;;;;;;;;6.33;6.33;;;;;;;;4979222;28;51452;-60
2023/07/08 11:48:05;;;;;;;;;8.00;7.33;;;;;;;;4979340;28;55020;-61
2023/07/08 11:50:38;;;;;;;;;9.00;8.00;;;;;;;;4979282;28;51242;-60
2023/07/08 11:53:08;;;;;;;;;7.67;6.33;;;;;;;;4979247;28;51331;-61
2023/07/08 11:55:36;;;;;;;;;7.33;7.33;;;;;;;;4979312;28;51381;-60
2023/07/08 11:58:01;;;;;;;;;7.25;7.00;;;;;;;;4978453;28;53110;-60
2023/07/08 12:00:32;;;;;;;;;8.33;8.33;;;;;;;;4978409;28;51254;-61
2023/07/08 12:02:58;;;;;;;;;7.67;7.67;;;;;;;;4979216;28;52643;-61
2023/07/08 12:05:38;;;;;;;;;8.00;7.33;;;;;;;;4979129;28;52865;-62
2023/07/08 12:08:11;;;;;;;;;11.75;10.25;;;;;;;;4979168;28;51853;-61
2023/07/08 12:10:41;;;;;;;;;7.00;7.00;;;;;;;;4979629;28;51192;-62
2023/07/08 12:13:12;;;;;;;;;7.00;6.33;;;;;;;;4980123;28;52578;-60
2023/07/08 12:15:37;;;;;;;;;11.00;8.00;;;;;;;;4978477;28;53507;-61
2023/07/08 12:18:10;;;;;;;;;7.67;7.67;;;;;;;;4977781;28;51939;-60
2023/07/08 12:20:37;;;;;;;;;9.00;9.00;;;;;;;;4979566;28;51187;-61
2023/07/08 12:23:08;;;;;;;;;7.67;7.67;;;;;;;;4979765;28;51578;-61
2023/07/08 12:25:36;;;;;;;;;9.33;9.33;;;;;;;;4979157;28;51260;-61
2023/07/08 12:28:01;;;;;;;;;9.00;9.00;;;;;;;;4981712;28;51254;-61
2023/07/08 12:30:31;;;;;;;;;8.00;8.00;;;;;;;;4980521;28;51338;-60
2023/07/08 12:32:59;;;;;;;;;5.33;4.33;;;;;;;;4982275;28;51137;-60
2023/07/08 12:35:25;;;;;;;;;6.67;6.67;;;;;;;;4978606;28;51447;-59
2023/07/08 12:37:51;;;;;;;;;7.33;6.67;;;;;;;;4979478;28;51202;-60
2023/07/08 12:40:17;;;;;;;;;8.00;8.00;;;;;;;;4989089;28;51229;-60
2023/07/08 12:42:43;;;;;;;;;5.67;5.00;;;;;;;;4979029;28;53594;-61
2023/07/08 12:45:13;;;;;;;;;6.67;6.33;;;;;;;;4978707;28;51453;-61
2023/07/08 12:47:38;;;;;;;;;8.00;8.00;;;;;;;;4978522;28;51491;-61
2023/07/08 12:50:04;;;;;;;;;5.33;5.00;;;;;;;;4978710;28;51247;-61
2023/07/08 12:52:29;;;;;;;;;5.00;5.00;;;;;;;;4979929;28;51232;-61
2023/07/08 12:54:57;;;;;;;;;7.67;7.00;;;;;;;;4976106;28;51201;-60
2023/07/08 12:57:22;;;;;;;;;8.00;8.00;;;;;;;;4979881;28;52073;-61
2023/07/08 12:59:48;;;;;;;;;7.33;7.33;;;;;;;;4977797;28;53398;-60
2023/07/08 13:02:21;;;;;;;;;9.67;8.67;;;;;;;;4979057;28;51191;-61
2023/07/08 13:04:52;;;;;;;;;4.33;4.33;;;;;;;;4977962;28;51239;-60
2023/07/08 13:07:30;;;;;;;;;9.00;9.00;;;;;;;;4978150;28;51411;-59
2023/07/08 13:09:55;;;;;;;;;8.00;8.00;;;;;;;;4976855;28;51185;-61
2023/07/08 13:12:24;;;;;;;;;7.00;7.00;;;;;;;;4977148;28;51293;-61
2023/07/08 13:14:52;;;;;;;;;8.33;8.33;;;;;;;;4978524;28;51666;-59
2023/07/08 13:17:17;;;;;;;;;10.00;9.67;;;;;;;;4979440;28;51840;-61
2023/07/08 13:19:43;;;;;;;;;8.33;8.33;;;;;;;;4977574;28;51206;-60
2023/07/08 13:22:30;;;;;;;;;10.33;9.67;;;;;;;;4977711;28;51314;-60
2023/07/08 13:24:59;;;;;;;;;10.00;10.00;;;;;;;;4976788;28;51268;-61
2023/07/08 13:27:25;;;;;;;;;8.00;7.33;;;;;;;;4977336;28;51264;-61
2023/07/08 13:29:51;;;;;;;;;8.67;8.67;;;;;;;;4978178;28;53673;-60
2023/07/08 13:32:17;;;;;;;;;11.50;11.50;;;;;;;;4981792;28;51811;-60
2023/07/08 13:34:42;;;;;;;;;8.67;7.00;;;;;;;;4980561;28;51546;-61
2023/07/08 13:37:13;;;;;;;;;9.00;9.00;;;;;;;;4981316;28;53204;-61
2023/07/08 13:39:42;;;;;;;;;8.00;8.00;;;;;;;;4978622;28;51094;-60
2023/07/08 13:42:07;;;;;;;;;7.00;7.00;;;;;;;;4982067;28;51125;-61
2023/07/08 13:44:34;;;;;;;;;7.00;7.00;;;;;;;;4979808;28;51371;-60
2023/07/08 13:47:00;;;;;;;;;8.67;8.33;;;;;;;;4980082;28;53098;-61
2023/07/08 13:49:37;;;;;;;;;7.67;7.67;;;;;;;;4979007;28;51314;-60
2023/07/08 13:52:08;;;;;;;;;6.33;6.33;;;;;;;;4981740;28;51303;-60
2023/07/08 13:54:37;;;;;;;;;7.33;7.00;;;;;;;;4979970;28;51362;-59
2023/07/08 13:57:02;;;;;;;;;7.00;7.00;;;;;;;;4981385;28;52985;-61
2023/07/08 13:59:27;;;;;;;;;6.00;6.00;;;;;;;;4979586;28;51213;-61
2023/07/08 14:01:55;;;;;;;;;6.00;5.00;;;;;;;;4980798;28;51378;-62
2023/07/08 14:04:26;;;;;;;;;8.00;8.00;;;;;;;;4981442;28;53518;-62
2023/07/08 14:06:51;;;;;;;;;7.00;6.67;;;;;;;;4980787;28;52001;-61
2023/07/08 14:09:21;;;;;;;;;7.67;6.67;;;;;;;;4980593;28;51204;-61
2023/07/08 14:11:46;;;;;;;;;6.00;6.00;;;;;;;;4980955;28;52797;-61
2023/07/08 14:14:12;;;;;;;;;7.67;7.67;;;;;;;;4976994;28;51609;-61
2023/07/08 14:16:40;;;;;;;;;7.33;7.33;;;;;;;;4977478;28;51665;-60
2023/07/08 14:19:07;;;;;;;;;5.67;5.67;;;;;;;;4979012;28;51172;-61
2023/07/08 14:21:35;;;;;;;;;7.00;7.00;;;;;;;;4979791;28;51602;-60
2023/07/08 14:24:01;;;;;;;;;6.00;5.00;;;;;;;;4980854;28;53494;-59
2023/07/08 14:26:28;;;;;;;;;8.00;7.33;;;;;;;;4981467;28;51192;-61
2023/07/08 14:28:53;;;;;;;;;7.67;7.00;;;;;;;;4978922;28;51133;-61
2023/07/08 14:31:21;;;;;;;;;6.00;6.00;;;;;;;;4979254;28;51237;-60
2023/07/08 14:33:46;;;;;;;;;5.00;5.00;;;;;;;;4978074;28;51383;-61
2023/07/08 14:36:11;;;;;;;;;5.67;5.67;;;;;;;;4975177;28;52008;-60
2023/07/08 14:38:37;;;;;;;;;7.00;6.00;;;;;;;;4975852;28;51271;-60
2023/07/08 14:41:02;;;;;;;;;4.00;4.00;;;;;;;;4974047;28;51248;-61
2023/07/08 14:43:28;;;;;;;;;4.67;4.67;;;;;;;;4974566;28;51518;-61
2023/07/08 14:45:55;;;;;;;;;6.00;6.00;;;;;;;;4976393;28;52803;-59
2023/07/08 14:48:20;;;;;;;;;4.67;4.67;;;;;;;;4976859;28;51450;-61